createdAt,value
2023-04-19T00:01:09.829Z,11.02
2023-04-19T00:06:02.988Z,11.22
2023-04-19T00:10:57.496Z,11.22
2023-04-19T00:15:50.626Z,11.14
2023-04-19T00:20:44.416Z,11.02
2023-04-19T00:25:37.533Z,11.28
2023-04-19T00:30:32.193Z,11.11
2023-04-19T00:35:25.286Z,11.32
2023-04-19T00:40:18.789Z,11.24
2023-04-19T00:45:12.928Z,11.35
2023-04-19T00:50:09.521Z,11.33
2023-04-19T00:55:03.127Z,11.32
2023-04-19T00:59:57.538Z,11.32
2023-04-19T01:04:50.751Z,11.34
2023-04-19T01:09:47.148Z,11.34
2023-04-19T01:14:41.052Z,11.15
2023-04-19T01:19:34.984Z,11.00
2023-04-19T01:24:29.652Z,10.86
2023-04-19T01:29:23.238Z,11.26
2023-04-19T01:34:16.666Z,11.26
2023-04-19T01:39:11.024Z,11.11
2023-04-19T01:44:07.751Z,11.27
2023-04-19T01:49:00.931Z,11.09
2023-04-19T01:53:54.837Z,11.07
2023-04-19T01:58:49.455Z,11.12
2023-04-19T02:03:44.161Z,10.89
2023-04-19T02:08:37.544Z,10.92
2023-04-19T02:13:30.909Z,11.07
2023-04-19T02:18:24.291Z,10.96
2023-04-19T02:23:19.049Z,11.03
2023-04-19T02:28:12.312Z,11.03
2023-04-19T02:33:05.664Z,10.95
2023-04-19T02:38:01.725Z,10.82
2023-04-19T02:42:56.250Z,10.96
2023-04-19T02:47:49.517Z,10.69
2023-04-19T02:52:42.651Z,10.66
2023-04-19T02:57:36.017Z,10.88
2023-04-19T03:02:31.947Z,10.89
2023-04-19T03:07:25.190Z,10.55
2023-04-19T03:12:18.470Z,10.92
2023-04-19T03:17:16.536Z,10.77
2023-04-19T03:22:12.699Z,10.66
2023-04-19T03:27:06.835Z,10.96
2023-04-19T03:32:00.689Z,10.23
2023-04-19T03:36:54.902Z,10.85
2023-04-19T03:41:49.664Z,11.02
2023-04-19T03:46:50.133Z,11.01
2023-04-19T03:51:48.280Z,11.00
2023-04-19T03:56:41.535Z,10.97
2023-04-19T04:01:41.832Z,10.34
2023-04-19T04:06:35.144Z,11.00
2023-04-19T04:11:28.424Z,10.67
2023-04-19T04:16:21.819Z,10.90
2023-04-19T04:21:18.357Z,10.90
2023-04-19T04:26:14.062Z,10.72
2023-04-19T04:31:26.412Z,10.88
2023-04-19T04:36:21.038Z,10.83
2023-04-19T04:41:16.661Z,10.86
2023-04-19T04:46:09.791Z,10.89
2023-04-19T04:51:07.365Z,10.90
2023-04-19T04:56:03.053Z,10.94
2023-04-19T05:00:57.493Z,10.90
2023-04-19T05:05:52.230Z,11.04
2023-04-19T05:10:45.468Z,11.09
2023-04-19T05:15:41.299Z,11.14
2023-04-19T05:20:35.547Z,11.22
2023-04-19T05:25:38.327Z,11.13
2023-04-19T05:30:38.202Z,11.02
2023-04-19T05:35:33.126Z,10.87
2023-04-19T05:40:27.299Z,11.18
2023-04-19T05:45:20.427Z,11.00
2023-04-19T05:50:15.087Z,11.27
2023-04-19T05:55:15.194Z,11.43
2023-04-19T06:00:12.288Z,11.40
2023-04-19T06:05:24.312Z,11.37
2023-04-19T06:10:19.249Z,11.41
2023-04-19T06:15:13.051Z,11.35
2023-04-19T06:20:08.396Z,11.59
2023-04-19T06:25:02.554Z,11.63
2023-04-19T06:29:57.120Z,11.68
2023-04-19T06:34:50.234Z,11.70
2023-04-19T06:39:43.304Z,11.59
2023-04-19T06:44:36.604Z,11.83
2023-04-19T06:49:31.359Z,12.00
2023-04-19T06:54:27.116Z,12.17
2023-04-19T06:59:21.676Z,12.12
2023-04-19T07:04:15.720Z,12.36
2023-04-19T07:09:10.667Z,12.55
2023-04-19T07:14:03.901Z,12.62
2023-04-19T07:18:57.959Z,12.61
2023-04-19T07:23:51.184Z,12.58
2023-04-19T07:28:45.957Z,12.59
2023-04-19T07:33:39.062Z,12.59
2023-04-19T07:38:32.176Z,12.84
2023-04-19T07:43:25.558Z,12.93
2023-04-19T07:48:20.121Z,12.71
2023-04-19T07:53:13.289Z,13.14
2023-04-19T07:58:06.452Z,13.28
2023-04-19T08:02:59.696Z,13.27
2023-04-19T08:07:54.769Z,13.37
2023-04-19T08:13:01.606Z,13.73
2023-04-19T08:17:58.412Z,13.77
2023-04-19T08:22:54.236Z,13.69
2023-04-19T08:27:47.288Z,14.17
2023-04-19T08:32:40.526Z,14.01
2023-04-19T08:37:33.749Z,14.43
2023-04-19T08:42:36.365Z,14.51
2023-04-19T08:47:34.155Z,15.13
2023-04-19T08:52:29.128Z,15.76
2023-04-19T08:57:22.375Z,16.42
2023-04-19T09:02:17.177Z,17.65
2023-04-19T09:07:10.450Z,18.42
2023-04-19T09:12:04.062Z,18.76
2023-04-19T09:17:17.181Z,18.67
2023-04-19T09:22:15.691Z,18.37
2023-04-19T09:27:10.672Z,18.57
2023-04-19T09:32:03.982Z,18.52
2023-04-19T09:37:27.920Z,18.31
2023-04-19T09:47:44.901Z,17.86
2023-04-19T09:52:41.724Z,17.40
2023-04-19T09:57:35.699Z,17.37
2023-04-19T10:02:32.893Z,17.03
2023-04-19T10:07:30.985Z,17.12
2023-04-19T10:12:58.547Z,16.58
2023-04-19T10:17:45.632Z,17.01
2023-04-19T10:22:39.429Z,16.77
2023-04-19T10:27:36.173Z,16.88
2023-04-19T10:32:30.175Z,16.79
2023-04-19T10:37:25.251Z,17.01
2023-04-19T10:42:18.487Z,16.90
2023-04-19T10:47:14.614Z,16.89
2023-04-19T10:52:27.997Z,16.85
2023-04-19T10:57:25.339Z,16.64
2023-04-19T11:02:32.860Z,16.40
2023-04-19T11:07:26.527Z,16.07
2023-04-19T11:12:20.786Z,15.89
2023-04-19T11:17:18.462Z,15.89
2023-04-19T11:22:13.020Z,16.10
2023-04-19T11:27:10.604Z,16.61
2023-04-19T11:32:06.685Z,16.94
2023-04-19T11:37:00.126Z,17.37
2023-04-19T11:41:54.738Z,17.87
2023-04-19T11:47:01.837Z,18.05
2023-04-19T11:51:58.090Z,18.03
2023-04-19T11:57:08.612Z,18.02
2023-04-19T12:02:09.437Z,18.36
2023-04-19T12:07:04.205Z,19.06
2023-04-19T12:11:58.467Z,20.54
2023-04-19T12:17:12.170Z,22.16
2023-04-19T12:22:13.332Z,23.61
2023-04-19T12:27:06.482Z,24.64
2023-04-19T12:32:05.796Z,25.60
2023-04-19T12:37:00.957Z,26.22
2023-04-19T12:41:54.157Z,26.48
2023-04-19T12:46:47.486Z,26.79
2023-04-19T12:51:42.589Z,27.08
2023-04-19T12:56:37.247Z,27.52
2023-04-19T13:01:30.493Z,27.81
2023-04-19T13:06:23.905Z,27.63
2023-04-19T13:11:26.911Z,27.30
2023-04-19T13:16:22.552Z,26.77
2023-04-19T13:21:15.956Z,27.39
2023-04-19T13:26:09.157Z,27.66
2023-04-19T13:31:02.735Z,28.00
2023-04-19T13:35:57.220Z,28.43
2023-04-19T13:40:50.809Z,28.44
2023-04-19T13:45:46.321Z,28.51
2023-04-19T13:50:39.476Z,28.54
2023-04-19T13:55:34.058Z,28.41
2023-04-19T14:00:27.501Z,28.19
2023-04-19T14:05:31.269Z,27.89
2023-04-19T14:10:38.800Z,27.54
2023-04-19T14:15:34.730Z,27.28
2023-04-19T14:20:28.260Z,27.12
2023-04-19T14:25:21.481Z,27.25
2023-04-19T14:30:16.344Z,25.90
2023-04-19T14:35:14.208Z,24.96
2023-04-19T14:40:10.704Z,24.52
2023-04-19T14:45:03.999Z,25.25
2023-04-19T14:50:00.907Z,25.32
2023-04-19T14:54:54.074Z,24.77
2023-04-19T14:59:47.212Z,23.93
2023-04-19T15:04:41.283Z,23.21
2023-04-19T15:09:36.603Z,22.60
2023-04-19T15:14:29.692Z,21.80
2023-04-19T15:19:22.781Z,21.11
2023-04-19T15:24:15.914Z,20.26
2023-04-19T15:29:10.401Z,19.74
2023-04-19T15:34:04.155Z,19.20
2023-04-19T15:38:58.365Z,18.75
2023-04-19T15:44:01.625Z,18.56
2023-04-19T15:48:56.268Z,18.34
2023-04-19T15:53:51.284Z,17.98
2023-04-19T15:58:44.457Z,18.05
2023-04-19T16:03:40.522Z,17.81
2023-04-19T16:08:35.178Z,17.73
2023-04-19T16:13:29.576Z,17.78
2023-04-19T16:18:25.370Z,17.69
2023-04-19T16:23:18.551Z,17.49
2023-04-19T16:28:13.086Z,17.57
2023-04-19T16:33:09.553Z,17.42
2023-04-19T16:38:04.505Z,17.43
2023-04-19T16:42:58.320Z,17.38
2023-04-19T16:47:53.834Z,17.33
2023-04-19T16:52:47.362Z,17.25
2023-04-19T16:57:40.737Z,17.17
2023-04-19T17:02:34.711Z,17.13
2023-04-19T17:07:34.459Z,17.02
2023-04-19T17:12:27.733Z,16.80
2023-04-19T17:17:21.377Z,16.84
2023-04-19T17:22:15.793Z,15.64
2023-04-19T17:27:10.577Z,16.75
2023-04-19T17:32:07.248Z,16.58
2023-04-19T17:37:01.535Z,16.08
2023-04-19T17:41:55.345Z,16.28
2023-04-19T17:46:51.809Z,16.21
2023-04-19T17:51:45.065Z,16.14
2023-04-19T17:56:38.638Z,16.06
2023-04-19T18:01:32.155Z,16.00
2023-04-19T18:06:28.415Z,15.28
2023-04-19T18:11:22.945Z,15.48
2023-04-19T18:16:17.389Z,15.88
2023-04-19T18:21:10.701Z,15.53
2023-04-19T18:26:05.467Z,15.72
2023-04-19T18:31:01.101Z,15.63
2023-04-19T18:35:54.465Z,15.41
2023-04-19T18:40:48.339Z,14.62
2023-04-19T18:45:43.489Z,15.31
2023-04-19T18:50:43.653Z,14.12
2023-04-19T18:55:36.717Z,15.27
2023-04-19T19:00:33.098Z,14.74
2023-04-19T19:05:29.234Z,14.91
2023-04-19T19:10:26.673Z,14.16
2023-04-19T19:15:37.389Z,14.27
2023-04-19T19:20:32.146Z,14.74
2023-04-19T19:25:28.558Z,14.70
2023-04-19T19:30:23.357Z,14.78
2023-04-19T19:35:16.545Z,14.62
2023-04-19T19:40:14.992Z,14.68
2023-04-19T19:45:12.546Z,14.39
2023-04-19T19:55:05.567Z,14.60
2023-04-19T20:00:32.050Z,14.19
2023-04-19T20:05:25.301Z,14.49
2023-04-19T20:10:21.780Z,13.95
2023-04-19T20:15:16.463Z,14.33
2023-04-19T20:20:13.251Z,14.26
2023-04-19T20:25:07.559Z,14.19
2023-04-19T20:30:02.395Z,14.11
2023-04-19T20:34:57.288Z,14.02
2023-04-19T20:39:50.536Z,12.96
2023-04-19T20:44:43.689Z,13.36
2023-04-19T20:49:37.000Z,13.86
2023-04-19T20:54:31.755Z,13.26
2023-04-19T20:59:25.000Z,13.76
2023-04-19T21:04:18.199Z,13.32
2023-04-19T21:09:11.635Z,13.76
2023-04-19T21:14:06.287Z,13.73
2023-04-19T21:19:02.521Z,13.92
2023-04-19T21:24:04.382Z,13.90
2023-04-19T21:28:57.664Z,13.97
2023-04-19T21:33:52.233Z,13.94
2023-04-19T21:38:45.493Z,13.94
2023-04-19T21:43:40.933Z,13.51
2023-04-19T21:48:36.991Z,13.48
2023-04-19T21:53:36.434Z,13.83
2023-04-19T21:58:29.881Z,13.07
2023-04-19T22:03:26.218Z,13.08
2023-04-19T22:08:19.609Z,13.60
2023-04-19T22:13:14.306Z,13.64
2023-04-19T22:18:08.272Z,13.08
2023-04-19T22:23:09.626Z,13.61
2023-04-19T22:28:02.956Z,13.37
2023-04-19T22:32:57.582Z,13.61
2023-04-19T22:37:50.838Z,13.07
2023-04-19T22:42:44.046Z,13.34
2023-04-19T22:47:37.509Z,13.42
2023-04-19T22:52:32.296Z,13.53
2023-04-19T22:57:27.797Z,13.51
2023-04-19T23:02:20.974Z,13.37
2023-04-19T23:07:14.178Z,13.42
2023-04-19T23:12:09.211Z,13.40
2023-04-19T23:17:03.029Z,13.37
2023-04-19T23:21:56.325Z,13.37
2023-04-19T23:26:49.513Z,13.34
2023-04-19T23:31:44.147Z,13.02
2023-04-19T23:36:37.394Z,12.96
2023-04-19T23:41:30.568Z,12.66
2023-04-19T23:46:24.188Z,13.32
2023-04-19T23:51:18.769Z,13.27
2023-04-19T23:56:11.964Z,12.08
